createdAt,value
2018-03-07T00:01:15.523Z,6.10
2018-03-07T00:03:43.654Z,6.10
2018-03-07T00:06:12.559Z,5.90
2018-03-07T00:08:40.718Z,6.10
2018-03-07T00:11:09.618Z,6.20
2018-03-07T00:13:37.755Z,6.10
2018-03-07T00:16:05.910Z,6.10
2018-03-07T00:18:34.038Z,6.30
2018-03-07T00:21:02.187Z,6.10
2018-03-07T00:23:31.127Z,6.00
2018-03-07T00:25:59.250Z,6.00
2018-03-07T00:28:28.158Z,6.10
2018-03-07T00:30:56.321Z,6.20
2018-03-07T00:33:24.474Z,6.30
2018-03-07T00:35:52.610Z,6.20
2018-03-07T00:38:20.785Z,6.30
2018-03-07T00:40:48.932Z,6.40
2018-03-07T00:43:17.066Z,6.50
2018-03-07T00:45:45.985Z,6.40
2018-03-07T00:48:14.182Z,6.50
2018-03-07T00:50:42.350Z,6.50
2018-03-07T00:53:10.497Z,6.60
2018-03-07T00:55:38.694Z,6.00
2018-03-07T00:58:06.862Z,6.40
2018-03-07T01:00:34.994Z,6.20
2018-03-07T01:03:03.896Z,6.50
2018-03-07T01:05:32.819Z,6.50
2018-03-07T01:08:01.619Z,6.30
2018-03-07T01:10:29.750Z,6.40
2018-03-07T01:12:58.667Z,6.30
2018-03-07T01:15:26.802Z,6.30
2018-03-07T01:17:55.734Z,6.30
2018-03-07T01:20:24.762Z,6.40
2018-03-07T01:22:52.899Z,6.30
2018-03-07T01:25:21.067Z,6.10
2018-03-07T01:27:49.564Z,6.30
2018-03-07T01:30:17.722Z,6.40
2018-03-07T01:32:45.897Z,6.40
2018-03-07T01:35:14.026Z,6.30
2018-03-07T01:37:42.923Z,6.40
2018-03-07T01:40:11.850Z,6.30
2018-03-07T01:42:40.128Z,6.40
2018-03-07T01:45:08.264Z,6.30
2018-03-07T01:47:37.179Z,6.20
2018-03-07T01:50:06.176Z,6.30
2018-03-07T01:52:34.327Z,6.30
2018-03-07T01:55:02.463Z,6.40
2018-03-07T01:57:30.625Z,6.40
2018-03-07T01:59:58.762Z,6.30
2018-03-07T02:02:26.890Z,6.50
2018-03-07T02:04:55.038Z,6.50
2018-03-07T02:07:23.198Z,6.10
2018-03-07T02:09:51.364Z,6.20
2018-03-07T02:12:19.494Z,6.30
2018-03-07T02:14:48.431Z,6.30
2018-03-07T02:17:16.569Z,6.20
2018-03-07T02:19:44.708Z,6.00
2018-03-07T02:22:12.875Z,5.90
2018-03-07T02:24:41.482Z,5.80
2018-03-07T02:27:10.382Z,5.60
2018-03-07T02:29:39.321Z,5.80
2018-03-07T02:32:07.451Z,5.60
2018-03-07T02:34:35.582Z,5.50
2018-03-07T02:37:03.738Z,5.80
2018-03-07T02:39:32.312Z,5.80
2018-03-07T02:42:00.581Z,5.80
2018-03-07T02:44:28.732Z,5.80
2018-03-07T02:46:56.909Z,5.90
2018-03-07T02:49:25.042Z,5.90
2018-03-07T02:51:53.174Z,5.50
2018-03-07T02:54:21.347Z,5.50
2018-03-07T02:56:49.513Z,5.50
2018-03-07T02:59:17.682Z,5.80
2018-03-07T03:01:45.813Z,5.50
2018-03-07T03:04:14.718Z,5.50
2018-03-07T03:06:42.886Z,5.70
2018-03-07T03:09:11.785Z,5.70
2018-03-07T03:11:39.918Z,5.70
2018-03-07T03:14:08.073Z,5.70
2018-03-07T03:16:36.206Z,5.60
2018-03-07T03:19:04.342Z,5.70
2018-03-07T03:21:32.514Z,5.70
2018-03-07T03:24:00.649Z,5.60
2018-03-07T03:26:28.782Z,5.60
2018-03-07T03:28:57.714Z,5.50
2018-03-07T03:31:27.118Z,5.70
2018-03-07T03:33:55.262Z,5.70
2018-03-07T03:36:23.422Z,5.60
2018-03-07T03:38:51.554Z,5.70
2018-03-07T03:41:19.700Z,5.70
2018-03-07T03:43:47.858Z,5.70
2018-03-07T03:46:15.995Z,5.60
2018-03-07T03:48:45.234Z,5.60
2018-03-07T03:51:13.386Z,5.50
2018-03-07T03:53:41.522Z,5.50
2018-03-07T03:56:09.654Z,5.30
2018-03-07T03:58:37.825Z,5.70
2018-03-07T04:01:05.998Z,5.50
2018-03-07T04:03:34.129Z,5.60
2018-03-07T04:06:03.073Z,5.60
2018-03-07T04:08:31.222Z,5.50
2018-03-07T04:10:59.354Z,5.70
2018-03-07T04:13:27.485Z,5.70
2018-03-07T04:15:55.635Z,5.80
2018-03-07T04:18:23.765Z,5.70
2018-03-07T04:20:51.918Z,5.70
2018-03-07T04:23:20.070Z,5.50
2018-03-07T04:25:48.266Z,5.80
2018-03-07T04:28:16.430Z,5.90
2018-03-07T04:30:44.606Z,5.80
2018-03-07T04:33:12.759Z,5.60
2018-03-07T04:35:40.994Z,5.50
2018-03-07T04:38:09.898Z,5.60
2018-03-07T04:40:38.112Z,5.70
2018-03-07T04:43:06.295Z,5.70
2018-03-07T04:45:34.596Z,5.70
2018-03-07T04:48:02.735Z,5.70
2018-03-07T04:50:30.930Z,5.60
2018-03-07T04:52:59.065Z,5.50
2018-03-07T04:55:27.255Z,5.30
2018-03-07T04:57:55.411Z,5.10
2018-03-07T05:00:23.586Z,5.30
2018-03-07T05:02:51.714Z,5.00
2018-03-07T05:05:20.630Z,5.20
2018-03-07T05:07:48.766Z,5.30
2018-03-07T05:10:17.430Z,5.50
2018-03-07T05:12:45.561Z,5.70
2018-03-07T05:15:13.702Z,5.70
2018-03-07T05:17:42.622Z,5.50
2018-03-07T05:20:10.810Z,5.50
2018-03-07T05:22:38.951Z,5.50
2018-03-07T05:25:07.880Z,5.50
2018-03-07T05:27:36.009Z,5.70
2018-03-07T05:30:04.960Z,5.80
2018-03-07T05:32:33.222Z,5.60
2018-03-07T05:35:01.526Z,5.50
2018-03-07T05:37:30.473Z,5.60
2018-03-07T05:39:58.619Z,5.10
2018-03-07T05:42:26.753Z,5.20
2018-03-07T05:44:54.920Z,5.50
2018-03-07T05:47:23.063Z,5.30
2018-03-07T05:49:51.194Z,5.40
2018-03-07T05:52:20.143Z,5.60
2018-03-07T05:54:48.445Z,5.60
2018-03-07T05:57:16.578Z,5.80
2018-03-07T05:59:44.752Z,5.90
2018-03-07T06:02:12.901Z,5.90
2018-03-07T06:04:41.070Z,6.00
2018-03-07T06:07:09.210Z,5.80
2018-03-07T06:09:37.343Z,5.70
2018-03-07T06:12:05.515Z,5.70
2018-03-07T06:14:33.675Z,5.90
2018-03-07T06:17:01.817Z,5.80
2018-03-07T06:19:30.776Z,5.90
2018-03-07T06:21:58.911Z,5.90
2018-03-07T06:24:27.060Z,5.80
2018-03-07T06:26:56.015Z,5.70
2018-03-07T06:29:24.142Z,5.40
2018-03-07T06:31:52.276Z,5.70
2018-03-07T06:34:20.423Z,5.80
2018-03-07T06:36:48.599Z,5.70
2018-03-07T06:39:16.791Z,5.80
2018-03-07T06:41:44.928Z,5.90
2018-03-07T06:44:13.066Z,5.80
2018-03-07T06:46:41.230Z,5.90
2018-03-07T06:49:10.153Z,6.00
2018-03-07T06:51:38.283Z,6.30
2018-03-07T06:54:07.210Z,6.20
2018-03-07T06:56:35.341Z,6.10
2018-03-07T06:59:04.245Z,5.80
2018-03-07T07:01:33.268Z,5.20
2018-03-07T07:04:01.404Z,5.30
2018-03-07T07:06:30.311Z,5.30
2018-03-07T07:08:59.271Z,6.00
2018-03-07T07:11:28.195Z,5.40
2018-03-07T07:13:56.353Z,5.70
2018-03-07T07:16:25.661Z,6.10
2018-03-07T07:18:53.796Z,5.10
2018-03-07T07:21:21.966Z,5.30
2018-03-07T07:23:50.097Z,5.70
2018-03-07T07:26:18.233Z,5.70
2018-03-07T07:28:47.150Z,5.10
2018-03-07T07:31:15.283Z,5.10
2018-03-07T07:33:43.419Z,5.20
2018-03-07T07:36:11.607Z,5.10
2018-03-07T07:38:39.747Z,5.40
2018-03-07T07:41:07.878Z,4.90
2018-03-07T07:43:36.198Z,4.60
2018-03-07T07:46:04.370Z,4.80
2018-03-07T07:48:32.557Z,5.10
2018-03-07T07:51:00.707Z,4.60
2018-03-07T07:53:28.893Z,5.70
2018-03-07T07:55:57.055Z,5.60
2018-03-07T07:58:25.238Z,4.70
2018-03-07T08:00:53.619Z,5.90
2018-03-07T08:03:21.944Z,6.30
2018-03-07T08:05:50.902Z,6.70
2018-03-07T08:08:19.040Z,4.90
2018-03-07T08:10:48.003Z,5.40
2018-03-07T08:13:16.941Z,6.20
2018-03-07T08:15:45.112Z,6.30
2018-03-07T08:18:13.313Z,5.70
2018-03-07T08:20:41.430Z,6.10
2018-03-07T08:23:09.575Z,4.90
2018-03-07T08:25:37.707Z,5.20
2018-03-07T08:28:05.974Z,5.90
2018-03-07T08:30:34.126Z,6.00
2018-03-07T08:33:02.257Z,5.40
2018-03-07T08:35:30.415Z,5.20
2018-03-07T08:37:58.558Z,5.90
2018-03-07T08:40:26.702Z,5.60
2018-03-07T08:42:55.663Z,5.30
2018-03-07T08:45:23.802Z,5.20
2018-03-07T08:47:51.970Z,5.20
2018-03-07T08:50:20.129Z,5.40
2018-03-07T08:52:48.269Z,5.20
2018-03-07T08:55:17.221Z,5.10
2018-03-07T08:57:46.024Z,4.90
2018-03-07T09:00:14.155Z,4.50
2018-03-07T09:02:42.326Z,4.60
2018-03-07T09:05:10.462Z,4.20
2018-03-07T09:07:38.593Z,4.50
2018-03-07T09:10:06.762Z,4.50
2018-03-07T09:12:34.914Z,4.70
2018-03-07T09:15:03.050Z,4.70
2018-03-07T09:17:31.217Z,4.50
2018-03-07T09:19:59.345Z,4.60
2018-03-07T09:22:27.478Z,4.50
2018-03-07T09:24:56.778Z,4.50
2018-03-07T09:27:25.678Z,4.50
2018-03-07T09:29:54.574Z,4.60
2018-03-07T09:32:22.747Z,4.50
2018-03-07T09:34:50.883Z,4.70
2018-03-07T09:37:19.023Z,4.50
2018-03-07T09:39:47.186Z,5.00
2018-03-07T09:42:15.363Z,4.70
2018-03-07T09:44:43.504Z,4.70
2018-03-07T09:47:11.706Z,4.20
2018-03-07T09:49:39.843Z,4.40
2018-03-07T09:52:08.738Z,4.60
2018-03-07T09:54:37.669Z,4.10
2018-03-07T09:57:05.810Z,4.10
2018-03-07T09:59:33.971Z,4.30
2018-03-07T10:02:02.918Z,4.40
2018-03-07T10:04:31.053Z,4.30
2018-03-07T10:06:59.238Z,4.30
2018-03-07T10:09:27.403Z,4.30
2018-03-07T10:11:55.542Z,4.40
2018-03-07T10:14:24.454Z,4.20
2018-03-07T10:16:52.618Z,4.30
2018-03-07T10:19:21.531Z,4.60
2018-03-07T10:21:49.719Z,4.50
2018-03-07T10:24:17.850Z,4.50
2018-03-07T10:26:46.766Z,4.40
2018-03-07T10:29:14.916Z,4.80
2018-03-07T10:31:43.078Z,4.80
2018-03-07T10:34:12.030Z,4.70
2018-03-07T10:36:40.170Z,4.90
2018-03-07T10:39:08.326Z,5.40
2018-03-07T10:41:36.487Z,5.60
2018-03-07T10:44:05.386Z,5.60
2018-03-07T10:46:34.748Z,5.30
2018-03-07T10:49:02.898Z,5.20
2018-03-07T10:51:31.037Z,5.20
2018-03-07T10:53:59.174Z,5.50
2018-03-07T10:56:27.330Z,5.40
2018-03-07T10:58:55.466Z,6.10
2018-03-07T11:01:23.594Z,6.70
2018-03-07T11:03:51.823Z,6.50
2018-03-07T11:06:19.999Z,6.20
2018-03-07T11:08:48.202Z,6.00
2018-03-07T11:11:16.388Z,5.90
2018-03-07T11:13:44.523Z,6.20
2018-03-07T11:16:12.706Z,6.20
2018-03-07T11:18:40.858Z,5.50
2018-03-07T11:21:09.151Z,5.20
2018-03-07T11:23:37.462Z,5.20
2018-03-07T11:26:05.606Z,5.50
2018-03-07T11:28:33.763Z,5.60
2018-03-07T11:31:01.996Z,5.70
2018-03-07T11:33:30.902Z,6.10
2018-03-07T11:35:59.035Z,5.70
2018-03-07T11:38:27.201Z,5.80
2018-03-07T11:40:55.354Z,6.00
2018-03-07T11:43:23.498Z,5.90
2018-03-07T11:45:52.103Z,5.80
2018-03-07T11:48:20.319Z,5.30
2018-03-07T11:50:49.250Z,5.50
2018-03-07T11:53:17.395Z,5.60
2018-03-07T11:55:46.324Z,5.20
2018-03-07T11:58:14.493Z,5.60
2018-03-07T12:00:42.636Z,5.40
2018-03-07T12:03:11.542Z,5.60
2018-03-07T12:05:39.693Z,5.70
2018-03-07T12:08:08.590Z,5.60
2018-03-07T12:10:36.722Z,5.80
2018-03-07T12:13:04.873Z,5.70
2018-03-07T12:15:33.844Z,5.90
2018-03-07T12:18:02.003Z,6.20
2018-03-07T12:20:30.138Z,5.50
2018-03-07T12:22:58.281Z,5.90
2018-03-07T12:25:26.439Z,5.60
2018-03-07T12:27:54.570Z,5.60
2018-03-07T12:30:23.498Z,5.50
2018-03-07T12:32:51.684Z,5.80
2018-03-07T12:35:19.790Z,5.50
2018-03-07T12:37:47.958Z,5.40
2018-03-07T12:40:16.878Z,5.40
2018-03-07T12:42:45.773Z,4.90
2018-03-07T12:45:14.704Z,4.80
2018-03-07T12:47:42.908Z,4.10
2018-03-07T12:50:11.035Z,4.00
2018-03-07T12:52:39.191Z,4.10
2018-03-07T12:55:07.326Z,4.00
2018-03-07T12:57:35.462Z,4.10
2018-03-07T13:00:03.654Z,3.60
2018-03-07T13:02:31.786Z,4.10
2018-03-07T13:04:59.922Z,3.90
2018-03-07T13:07:28.087Z,3.90
2018-03-07T13:09:56.226Z,4.50
2018-03-07T13:12:24.357Z,4.60
2018-03-07T13:14:53.362Z,4.20
2018-03-07T13:17:21.499Z,4.00
2018-03-07T13:19:49.729Z,3.90
2018-03-07T13:22:17.879Z,3.70
2018-03-07T13:24:46.015Z,3.60
2018-03-07T13:27:14.147Z,3.80
2018-03-07T13:29:42.295Z,4.10
2018-03-07T13:32:10.598Z,4.70
2018-03-07T13:34:38.778Z,4.50
2018-03-07T13:37:06.911Z,4.30
2018-03-07T13:39:35.043Z,4.40
2018-03-07T13:42:03.207Z,4.50
2018-03-07T13:44:31.385Z,4.40
2018-03-07T13:46:59.486Z,4.30
2018-03-07T13:49:28.415Z,4.00
2018-03-07T13:51:56.555Z,4.30
2018-03-07T13:54:25.474Z,4.50
2018-03-07T13:56:53.645Z,4.20
2018-03-07T13:59:21.825Z,4.70
2018-03-07T14:01:49.965Z,4.50
2018-03-07T14:04:18.895Z,4.50
2018-03-07T14:06:47.030Z,4.50
2018-03-07T14:09:15.925Z,4.40
2018-03-07T14:11:44.124Z,4.40
2018-03-07T14:14:12.258Z,4.20
2018-03-07T14:16:41.162Z,4.10
2018-03-07T14:19:09.311Z,4.30
2018-03-07T14:21:38.210Z,4.40
2018-03-07T14:24:06.369Z,4.30
2018-03-07T14:26:34.559Z,4.60
2018-03-07T14:29:02.658Z,4.40
2018-03-07T14:31:30.821Z,4.20
2018-03-07T14:33:58.963Z,4.10
2018-03-07T14:36:27.867Z,4.00
2018-03-07T14:38:56.805Z,3.70
2018-03-07T14:41:24.942Z,3.80
2018-03-07T14:43:53.078Z,3.80
2018-03-07T14:46:21.318Z,3.80
2018-03-07T14:48:49.484Z,4.10
2018-03-07T14:51:17.774Z,4.00
2018-03-07T14:53:46.170Z,3.70
2018-03-07T14:56:14.443Z,3.70
2018-03-07T14:58:42.637Z,3.60
2018-03-07T15:01:11.574Z,3.80
2018-03-07T15:03:39.705Z,3.80
2018-03-07T15:06:08.634Z,3.70
2018-03-07T15:08:36.799Z,3.80
2018-03-07T15:11:04.931Z,3.80
2018-03-07T15:13:33.835Z,4.10
2018-03-07T15:16:02.758Z,3.80
2018-03-07T15:18:30.886Z,3.70
2018-03-07T15:20:59.811Z,3.60
2018-03-07T15:23:27.996Z,3.80
2018-03-07T15:25:56.125Z,3.50
2018-03-07T15:28:25.025Z,3.60
2018-03-07T15:30:53.976Z,3.90
2018-03-07T15:33:22.106Z,3.80
2018-03-07T15:35:50.244Z,3.60
2018-03-07T15:38:18.402Z,3.40
2018-03-07T15:40:46.565Z,3.60
2018-03-07T15:43:14.699Z,3.60
2018-03-07T15:45:43.693Z,3.50
2018-03-07T15:48:11.878Z,3.70
2018-03-07T15:50:40.037Z,3.70
2018-03-07T15:53:08.191Z,3.60
2018-03-07T15:55:37.116Z,3.60
2018-03-07T15:58:05.246Z,3.50
2018-03-07T16:00:34.210Z,3.40
2018-03-07T16:03:02.363Z,4.00
2018-03-07T16:05:30.518Z,4.10
2018-03-07T16:07:58.677Z,3.90
2018-03-07T16:10:26.811Z,4.60
2018-03-07T16:12:55.682Z,4.70
2018-03-07T16:15:23.847Z,4.30
2018-03-07T16:17:51.986Z,4.00
2018-03-07T16:20:20.117Z,3.70
2018-03-07T16:22:48.270Z,4.20
2018-03-07T16:25:16.406Z,4.40
2018-03-07T16:27:44.540Z,4.40
2018-03-07T16:30:13.473Z,4.50
2018-03-07T16:32:42.365Z,4.50
2018-03-07T16:35:10.492Z,4.10
2018-03-07T16:37:40.277Z,4.10
2018-03-07T16:40:08.406Z,4.40
2018-03-07T16:42:36.595Z,4.60
2018-03-07T16:45:04.752Z,4.10
2018-03-07T16:47:33.202Z,4.10
2018-03-07T16:50:02.110Z,3.90
2018-03-07T16:52:30.314Z,4.20
2018-03-07T16:54:58.446Z,4.00
2018-03-07T16:57:27.354Z,4.20
2018-03-07T16:59:55.530Z,4.10
2018-03-07T17:02:23.666Z,4.10
2018-03-07T17:04:51.798Z,4.40
2018-03-07T17:07:19.951Z,4.50
2018-03-07T17:09:48.103Z,4.00
2018-03-07T17:12:16.262Z,4.30
2018-03-07T17:14:45.162Z,4.10
2018-03-07T17:17:14.099Z,4.10
2018-03-07T17:19:42.270Z,4.00
2018-03-07T17:22:10.437Z,4.20
2018-03-07T17:24:38.570Z,4.20
2018-03-07T17:27:07.487Z,4.30
2018-03-07T17:29:35.633Z,4.30
2018-03-07T17:32:04.579Z,4.20
2018-03-07T17:34:32.721Z,4.30
2018-03-07T17:37:00.851Z,4.10
2018-03-07T17:39:29.003Z,4.20
2018-03-07T17:41:57.254Z,3.90
2018-03-07T17:44:25.463Z,4.40
2018-03-07T17:46:55.496Z,4.50
2018-03-07T17:49:24.630Z,4.30
2018-03-07T17:51:52.830Z,3.80
2018-03-07T17:54:21.102Z,4.10
2018-03-07T17:56:49.255Z,4.00
2018-03-07T17:59:17.387Z,4.30
2018-03-07T18:01:46.414Z,4.10
2018-03-07T18:04:14.549Z,3.90
2018-03-07T18:06:43.470Z,4.10
2018-03-07T18:09:11.642Z,3.90
2018-03-07T18:11:39.779Z,3.70
2018-03-07T18:14:07.909Z,3.80
2018-03-07T18:16:36.071Z,3.90
2018-03-07T18:19:04.203Z,4.00
2018-03-07T18:21:33.114Z,4.10
2018-03-07T18:24:01.271Z,4.20
2018-03-07T18:26:30.231Z,4.10
2018-03-07T18:28:58.369Z,3.90
2018-03-07T18:31:26.562Z,3.80
2018-03-07T18:33:54.726Z,3.80
2018-03-07T18:36:22.998Z,3.60
2018-03-07T18:38:51.134Z,3.70
2018-03-07T18:41:21.033Z,3.60
2018-03-07T18:43:50.230Z,3.70
2018-03-07T18:46:19.172Z,3.70
2018-03-07T18:48:47.313Z,3.70
2018-03-07T18:51:15.653Z,3.90
2018-03-07T18:53:43.819Z,3.60
2018-03-07T18:56:11.977Z,3.70
2018-03-07T18:58:40.132Z,3.80
2018-03-07T19:01:08.421Z,3.50
2018-03-07T19:03:36.558Z,3.80
2018-03-07T19:06:04.700Z,3.80
2018-03-07T19:08:32.866Z,3.90
2018-03-07T19:11:01.106Z,3.90
2018-03-07T19:13:29.238Z,4.10
2018-03-07T19:15:58.182Z,3.80
2018-03-07T19:18:26.315Z,3.90
2018-03-07T19:20:54.454Z,4.10
2018-03-07T19:23:23.416Z,4.10
2018-03-07T19:25:52.621Z,3.80
2018-03-07T19:28:20.768Z,3.90
2018-03-07T19:30:48.962Z,4.00
2018-03-07T19:33:17.247Z,3.80
2018-03-07T19:35:45.707Z,3.70
2018-03-07T19:38:13.906Z,3.70
2018-03-07T19:40:42.043Z,3.60
2018-03-07T19:43:10.192Z,3.80
2018-03-07T19:45:38.627Z,3.90
2018-03-07T19:48:06.763Z,3.80
2018-03-07T19:50:34.928Z,4.00
2018-03-07T19:53:03.112Z,4.30
2018-03-07T19:55:31.294Z,4.10
2018-03-07T19:57:59.437Z,4.30
2018-03-07T20:00:27.589Z,4.60
2018-03-07T20:02:56.541Z,4.10
2018-03-07T20:05:24.685Z,4.20
2018-03-07T20:07:52.828Z,4.50
2018-03-07T20:10:21.752Z,4.40
2018-03-07T20:12:50.671Z,4.10
2018-03-07T20:15:18.824Z,4.10
2018-03-07T20:17:47.049Z,4.30
2018-03-07T20:20:15.175Z,4.40
2018-03-07T20:22:44.610Z,4.50
2018-03-07T20:25:12.743Z,4.60
2018-03-07T20:27:40.918Z,4.20
2018-03-07T20:30:09.129Z,4.20
2018-03-07T20:32:37.271Z,4.70
2018-03-07T20:35:05.430Z,4.80
2018-03-07T20:37:33.642Z,4.70
2018-03-07T20:40:01.785Z,4.40
2018-03-07T20:42:29.926Z,4.50
2018-03-07T20:44:58.121Z,4.40
2018-03-07T20:47:26.249Z,4.40
2018-03-07T20:49:55.146Z,4.30
2018-03-07T20:52:24.069Z,4.20
2018-03-07T20:54:52.235Z,4.50
2018-03-07T20:57:20.363Z,4.50
2018-03-07T20:59:48.522Z,5.10
2018-03-07T21:02:16.697Z,5.40
2018-03-07T21:04:44.838Z,4.50
2018-03-07T21:07:13.133Z,4.30
2018-03-07T21:09:41.317Z,4.30
2018-03-07T21:12:09.455Z,4.20
2018-03-07T21:14:37.590Z,5.00
2018-03-07T21:17:06.533Z,4.70
2018-03-07T21:19:34.670Z,4.40
2018-03-07T21:22:02.830Z,4.30
2018-03-07T21:24:31.754Z,4.00
2018-03-07T21:26:59.927Z,4.30
2018-03-07T21:29:28.111Z,4.20
2018-03-07T21:31:56.251Z,4.10
2018-03-07T21:34:25.146Z,4.10
2018-03-07T21:36:53.630Z,4.00
2018-03-07T21:39:21.789Z,4.00
2018-03-07T21:41:49.930Z,4.10
2018-03-07T21:44:18.272Z,4.20
2018-03-07T21:46:46.422Z,4.30
2018-03-07T21:49:14.557Z,4.60
2018-03-07T21:51:43.499Z,4.60
2018-03-07T21:54:11.675Z,4.70
2018-03-07T21:56:39.949Z,5.50
2018-03-07T21:59:08.085Z,5.50
2018-03-07T22:01:36.986Z,5.60
2018-03-07T22:04:05.139Z,5.40
2018-03-07T22:06:34.041Z,4.80
2018-03-07T22:09:02.218Z,5.40
2018-03-07T22:11:30.489Z,5.00
2018-03-07T22:13:59.410Z,5.00
2018-03-07T22:16:27.967Z,5.00
2018-03-07T22:18:56.115Z,5.60
2018-03-07T22:21:25.026Z,5.40
2018-03-07T22:23:53.966Z,5.30
2018-03-07T22:26:22.890Z,5.10
2018-03-07T22:28:52.058Z,4.70
2018-03-07T22:31:20.214Z,4.70
2018-03-07T22:33:48.354Z,4.80
2018-03-07T22:36:16.482Z,4.70
2018-03-07T22:38:44.663Z,4.90
2018-03-07T22:41:12.810Z,5.10
2018-03-07T22:43:40.953Z,5.10
2018-03-07T22:46:09.111Z,4.80
2018-03-07T22:48:37.246Z,5.20
2018-03-07T22:51:05.380Z,5.20
2018-03-07T22:53:33.554Z,4.80
2018-03-07T22:56:01.690Z,5.00
2018-03-07T22:58:31.029Z,4.80
2018-03-07T23:00:59.197Z,4.30
2018-03-07T23:03:27.334Z,4.40
2018-03-07T23:05:56.238Z,4.40
2018-03-07T23:08:24.413Z,4.50
2018-03-07T23:10:52.546Z,4.40
2018-03-07T23:13:20.779Z,4.60
2018-03-07T23:15:48.945Z,4.60
2018-03-07T23:18:17.082Z,4.80
2018-03-07T23:20:46.002Z,4.50
2018-03-07T23:23:14.188Z,4.60
2018-03-07T23:25:42.782Z,4.20
2018-03-07T23:28:10.914Z,4.10
2018-03-07T23:30:39.105Z,4.50
2018-03-07T23:33:07.254Z,4.10
2018-03-07T23:35:36.249Z,4.30
2018-03-07T23:38:05.166Z,4.20
2018-03-07T23:40:33.320Z,4.20
2018-03-07T23:43:01.482Z,3.80
2018-03-07T23:45:30.397Z,4.00
2018-03-07T23:47:58.930Z,4.00
2018-03-07T23:50:27.094Z,3.80
2018-03-07T23:52:55.231Z,3.40
2018-03-07T23:55:23.364Z,3.80
2018-03-07T23:57:52.298Z,4.40
